createdAt,value
2019-02-28T00:01:03.534Z,3.00
2019-02-28T00:03:43.201Z,3.00
2019-02-28T00:06:23.084Z,2.90
2019-02-28T00:09:04.009Z,2.90
2019-02-28T00:11:46.735Z,2.80
2019-02-28T00:14:27.751Z,2.80
2019-02-28T00:17:09.111Z,2.70
2019-02-28T00:19:49.696Z,2.70
2019-02-28T00:22:29.798Z,2.80
2019-02-28T00:25:09.414Z,2.90
2019-02-28T00:27:52.732Z,2.90
2019-02-28T00:30:31.626Z,3.00
2019-02-28T00:33:11.011Z,3.00
2019-02-28T00:35:51.388Z,3.20
2019-02-28T00:38:31.580Z,3.50
2019-02-28T00:41:11.631Z,3.80
2019-02-28T00:43:51.919Z,4.00
2019-02-28T00:46:32.325Z,4.20
2019-02-28T00:49:12.436Z,4.40
2019-02-28T00:51:53.362Z,4.50
2019-02-28T00:54:33.531Z,4.60
2019-02-28T00:57:16.151Z,4.70
2019-02-28T00:59:56.079Z,4.80
2019-02-28T01:02:36.091Z,4.90
2019-02-28T01:05:17.336Z,5.00
2019-02-28T01:07:57.549Z,5.10
2019-02-28T01:10:39.259Z,5.10
2019-02-28T01:13:20.095Z,5.10
2019-02-28T01:16:00.243Z,5.10
2019-02-28T01:18:40.116Z,5.10
2019-02-28T01:21:23.625Z,5.10
2019-02-28T01:24:02.519Z,5.30
2019-02-28T01:26:43.284Z,5.40
2019-02-28T01:29:24.608Z,5.50
2019-02-28T01:32:04.673Z,5.50
2019-02-28T01:34:44.624Z,5.50
2019-02-28T01:37:24.741Z,5.50
2019-02-28T01:39:52.207Z,5.50
2019-02-28T01:42:38.940Z,5.60
2019-02-28T01:45:18.749Z,5.70
2019-02-28T01:47:59.013Z,5.70
2019-02-28T01:50:38.735Z,5.70
2019-02-28T01:53:19.670Z,5.70
2019-02-28T01:56:02.394Z,5.70
2019-02-28T01:58:41.879Z,5.70
2019-02-28T02:01:22.680Z,5.60
2019-02-28T02:04:02.638Z,5.60
2019-02-28T02:09:29.266Z,5.40
2019-02-28T02:12:08.549Z,5.20
2019-02-28T02:14:48.799Z,5.10
2019-02-28T02:17:28.899Z,5.00
2019-02-28T02:20:09.735Z,4.90
2019-02-28T02:22:54.263Z,4.80
2019-02-28T02:25:36.956Z,4.80
2019-02-28T02:28:15.668Z,4.80
2019-02-28T02:30:55.852Z,4.70
2019-02-28T02:33:35.760Z,4.60
2019-02-28T02:36:17.587Z,4.60
2019-02-28T02:38:58.030Z,4.60
2019-02-28T02:41:37.914Z,4.60
2019-02-28T02:44:18.067Z,4.50
2019-02-28T02:46:58.956Z,4.50
2019-02-28T02:49:40.033Z,4.40
2019-02-28T02:52:25.873Z,4.40
2019-02-28T02:55:02.340Z,4.40
2019-02-28T02:57:42.257Z,4.40
2019-02-28T03:00:22.308Z,4.40
2019-02-28T03:03:05.990Z,4.40
2019-02-28T03:05:44.416Z,4.40
2019-02-28T03:08:24.640Z,4.40
2019-02-28T03:11:04.651Z,4.40
2019-02-28T03:13:44.852Z,4.40
2019-02-28T03:16:24.831Z,4.50
2019-02-28T03:19:04.865Z,4.50
2019-02-28T03:21:51.070Z,4.50
2019-02-28T03:24:26.718Z,4.50
2019-02-28T03:27:06.552Z,4.60
2019-02-28T03:29:46.768Z,4.60
2019-02-28T03:32:39.367Z,4.60
2019-02-28T03:35:08.744Z,4.60
2019-02-28T03:37:52.736Z,4.70
2019-02-28T03:40:39.930Z,4.70
2019-02-28T03:43:14.922Z,4.60
2019-02-28T03:45:55.623Z,4.60
2019-02-28T03:48:36.267Z,4.60
2019-02-28T03:51:16.249Z,4.70
2019-02-28T03:54:00.352Z,4.80
2019-02-28T03:56:40.658Z,4.80
2019-02-28T03:59:20.533Z,4.80
2019-02-28T04:02:00.757Z,4.80
2019-02-28T04:04:48.791Z,4.80
2019-02-28T04:07:22.653Z,4.70
2019-02-28T04:10:02.820Z,4.70
2019-02-28T04:12:45.679Z,4.70
2019-02-28T04:15:25.316Z,4.70
2019-02-28T04:18:07.713Z,4.70
2019-02-28T04:20:45.022Z,4.80
2019-02-28T04:23:35.980Z,4.80
2019-02-28T04:26:34.843Z,4.90
2019-02-28T04:29:14.564Z,5.00
2019-02-28T04:31:55.035Z,4.90
2019-02-28T04:34:34.781Z,4.80
2019-02-28T04:37:14.751Z,4.70
2019-02-28T04:39:55.472Z,4.60
2019-02-28T04:42:36.647Z,4.60
2019-02-28T04:45:17.092Z,4.50
2019-02-28T04:47:57.305Z,4.50
2019-02-28T04:50:38.199Z,4.40
2019-02-28T04:53:19.158Z,4.30
2019-02-28T04:56:00.438Z,4.10
2019-02-28T04:58:40.400Z,4.00
2019-02-28T05:01:20.564Z,3.90
2019-02-28T05:04:02.282Z,3.90
2019-02-28T05:06:42.797Z,3.80
2019-02-28T05:09:22.825Z,3.80
2019-02-28T05:12:05.242Z,3.80
2019-02-28T05:17:28.262Z,3.70
2019-02-28T05:20:10.736Z,3.70
2019-02-28T05:22:50.254Z,3.70
2019-02-28T05:25:30.192Z,3.60
2019-02-28T05:28:09.924Z,3.60
2019-02-28T05:30:53.696Z,3.60
2019-02-28T05:33:32.483Z,3.60
2019-02-28T05:36:12.467Z,3.60
2019-02-28T05:38:53.530Z,3.50
2019-02-28T05:41:36.288Z,3.50
2019-02-28T05:44:16.293Z,3.50
2019-02-28T05:46:58.071Z,3.40
2019-02-28T05:49:40.733Z,3.40
2019-02-28T05:52:20.489Z,3.40
2019-02-28T05:55:00.697Z,3.30
2019-02-28T05:57:43.560Z,3.30
2019-02-28T06:00:23.234Z,3.50
2019-02-28T06:03:04.562Z,3.60
2019-02-28T06:05:33.218Z,3.60
2019-02-28T06:08:19.772Z,3.60
2019-02-28T06:11:01.379Z,3.60
2019-02-28T06:13:41.632Z,3.60
2019-02-28T06:16:21.639Z,3.60
2019-02-28T06:19:04.574Z,3.70
2019-02-28T06:21:43.969Z,3.70
2019-02-28T06:24:23.786Z,3.70
2019-02-28T06:27:06.569Z,3.80
2019-02-28T06:29:45.845Z,3.90
2019-02-28T06:32:27.271Z,3.90
2019-02-28T06:35:07.286Z,4.00
2019-02-28T06:37:48.040Z,4.20
2019-02-28T06:40:32.604Z,4.30
2019-02-28T06:43:09.914Z,4.50
2019-02-28T06:48:36.056Z,4.80
2019-02-28T06:51:16.871Z,5.00
2019-02-28T06:53:57.153Z,5.20
2019-02-28T06:56:37.022Z,5.40
2019-02-28T06:59:18.623Z,5.50
2019-02-28T07:01:58.116Z,5.70
2019-02-28T07:04:38.427Z,5.90
2019-02-28T07:07:20.721Z,6.00
2019-02-28T07:10:00.704Z,6.00
2019-02-28T07:12:41.154Z,6.20
2019-02-28T07:15:24.800Z,6.40
2019-02-28T07:21:10.376Z,6.80
2019-02-28T07:23:50.914Z,7.00
2019-02-28T07:26:31.651Z,7.10
2019-02-28T07:29:12.070Z,7.20
2019-02-28T07:31:52.452Z,7.70
2019-02-28T07:34:32.682Z,8.00
2019-02-28T07:37:13.113Z,8.30
2019-02-28T07:39:53.062Z,8.60
2019-02-28T07:42:33.664Z,8.80
2019-02-28T07:45:22.517Z,9.00
2019-02-28T07:48:08.679Z,9.30
2019-02-28T07:50:49.229Z,9.60
2019-02-28T07:53:29.188Z,9.50
2019-02-28T07:56:09.774Z,9.60
2019-02-28T07:58:49.339Z,9.90
2019-02-28T08:01:30.292Z,9.90
2019-02-28T08:04:09.803Z,10.30
2019-02-28T08:06:50.296Z,10.50
2019-02-28T08:09:30.098Z,10.70
2019-02-28T08:12:12.150Z,11.00
2019-02-28T08:14:52.584Z,10.90
2019-02-28T08:17:32.796Z,11.00
2019-02-28T08:20:12.825Z,11.20
2019-02-28T08:25:33.032Z,11.20
2019-02-28T08:28:13.188Z,11.40
2019-02-28T08:30:55.196Z,11.20
2019-02-28T08:33:36.020Z,11.00
2019-02-28T08:36:16.951Z,11.40
2019-02-28T08:38:56.729Z,11.50
2019-02-28T08:41:36.452Z,11.40
2019-02-28T08:44:22.814Z,11.40
2019-02-28T08:47:00.394Z,11.40
2019-02-28T08:49:44.578Z,11.50
2019-02-28T08:52:22.757Z,11.70
2019-02-28T08:55:06.748Z,12.60
2019-02-28T08:57:54.369Z,12.10
2019-02-28T09:00:32.815Z,12.30
2019-02-28T09:03:11.374Z,12.80
2019-02-28T09:05:53.274Z,12.90
2019-02-28T09:08:33.665Z,13.30
2019-02-28T09:11:13.651Z,13.80
2019-02-28T09:13:53.482Z,13.70
2019-02-28T09:16:33.516Z,13.70
2019-02-28T09:19:13.812Z,14.10
2019-02-28T09:21:54.545Z,14.70
2019-02-28T09:24:34.542Z,15.20
2019-02-28T09:27:14.719Z,14.30
2019-02-28T09:29:55.560Z,14.00
2019-02-28T09:32:36.352Z,14.00
2019-02-28T09:35:06.391Z,14.20
2019-02-28T09:41:01.409Z,13.90
2019-02-28T09:43:41.944Z,15.40
2019-02-28T09:46:22.485Z,15.50
2019-02-28T09:49:02.476Z,15.40
2019-02-28T09:51:42.563Z,15.00
2019-02-28T09:54:25.885Z,14.80
2019-02-28T09:57:06.518Z,15.00
2019-02-28T09:59:46.616Z,16.30
2019-02-28T10:02:26.955Z,16.90
2019-02-28T10:05:07.552Z,16.80
2019-02-28T10:07:47.850Z,16.70
2019-02-28T10:13:08.696Z,16.80
2019-02-28T10:15:48.418Z,17.30
2019-02-28T10:18:28.629Z,16.70
2019-02-28T10:21:08.897Z,17.10
2019-02-28T10:23:48.961Z,17.80
2019-02-28T10:29:12.299Z,18.00
2019-02-28T10:31:53.401Z,18.30
2019-02-28T10:34:35.376Z,17.30
2019-02-28T10:39:55.934Z,18.80
2019-02-28T10:42:39.860Z,18.70
2019-02-28T10:45:07.314Z,18.10
2019-02-28T10:47:54.203Z,18.90
2019-02-28T10:50:34.071Z,19.90
2019-02-28T10:55:58.016Z,19.50
2019-02-28T11:01:16.718Z,16.70
2019-02-28T11:03:56.314Z,16.60
2019-02-28T11:06:36.656Z,16.50
2019-02-28T11:09:18.327Z,16.50
2019-02-28T11:14:39.537Z,18.10
2019-02-28T11:17:19.196Z,18.30
2019-02-28T11:19:59.172Z,18.40
2019-02-28T11:22:39.865Z,18.40
2019-02-28T11:25:21.228Z,18.10
2019-02-28T11:28:01.020Z,17.90
2019-02-28T11:30:44.553Z,17.70
2019-02-28T11:33:23.268Z,17.10
2019-02-28T11:36:03.241Z,16.80
2019-02-28T11:38:43.160Z,16.60
2019-02-28T11:41:23.421Z,16.90
2019-02-28T11:44:03.317Z,16.90
2019-02-28T11:46:43.091Z,17.60
2019-02-28T11:49:25.657Z,17.80
2019-02-28T11:52:04.849Z,17.90
2019-02-28T11:54:45.404Z,17.70
2019-02-28T11:57:26.550Z,17.70
2019-02-28T12:00:06.393Z,17.70
2019-02-28T12:02:53.223Z,18.20
2019-02-28T12:05:30.217Z,18.70
2019-02-28T12:08:10.724Z,19.70
2019-02-28T12:10:50.476Z,19.10
2019-02-28T12:13:30.699Z,20.10
2019-02-28T12:16:10.485Z,20.60
2019-02-28T12:21:37.609Z,21.00
2019-02-28T12:24:15.669Z,20.90
2019-02-28T12:26:57.104Z,21.80
2019-02-28T12:29:37.200Z,21.70
2019-02-28T12:32:17.119Z,21.70
2019-02-28T12:34:57.207Z,22.30
2019-02-28T12:37:37.580Z,22.00
2019-02-28T12:40:17.463Z,22.10
2019-02-28T12:42:57.577Z,22.10
2019-02-28T12:45:37.530Z,21.10
2019-02-28T12:48:18.012Z,21.10
2019-02-28T12:50:57.677Z,22.30
2019-02-28T12:53:38.750Z,22.30
2019-02-28T12:56:19.099Z,21.40
2019-02-28T12:58:59.280Z,21.70
2019-02-28T13:01:39.312Z,21.50
2019-02-28T13:04:19.512Z,22.50
2019-02-28T13:06:59.543Z,22.40
2019-02-28T13:09:39.863Z,22.80
2019-02-28T13:12:19.498Z,24.00
2019-02-28T13:14:59.575Z,23.50
2019-02-28T13:17:39.500Z,23.60
2019-02-28T13:20:19.813Z,24.20
2019-02-28T13:23:01.150Z,24.30
2019-02-28T13:28:23.656Z,22.50
2019-02-28T13:33:44.014Z,21.40
2019-02-28T13:36:24.801Z,21.20
2019-02-28T13:39:04.427Z,21.50
2019-02-28T13:41:45.386Z,22.20
2019-02-28T13:44:25.318Z,23.10
2019-02-28T13:47:09.891Z,23.00
2019-02-28T13:49:49.779Z,22.50
2019-02-28T13:52:29.616Z,21.10
2019-02-28T13:55:10.110Z,21.10
2019-02-28T13:57:49.716Z,21.40
2019-02-28T14:00:29.714Z,21.10
2019-02-28T14:03:10.476Z,20.90
2019-02-28T14:05:51.006Z,21.50
2019-02-28T14:08:30.885Z,21.90
2019-02-28T14:11:11.133Z,21.50
2019-02-28T14:13:51.629Z,21.80
2019-02-28T14:16:31.496Z,22.50
2019-02-28T14:19:11.495Z,22.80
2019-02-28T14:21:51.521Z,22.70
2019-02-28T14:24:32.043Z,22.00
2019-02-28T14:27:11.851Z,21.70
2019-02-28T14:32:31.868Z,21.40
2019-02-28T14:35:11.972Z,21.00
2019-02-28T14:37:55.520Z,20.40
2019-02-28T14:40:34.114Z,20.40
2019-02-28T14:43:13.943Z,20.50
2019-02-28T14:45:54.138Z,20.80
2019-02-28T14:48:36.510Z,20.70
2019-02-28T14:51:16.393Z,20.30
2019-02-28T14:53:56.305Z,20.60
2019-02-28T14:56:36.436Z,20.50
2019-02-28T14:59:15.771Z,20.40
2019-02-28T15:01:55.786Z,20.30
2019-02-28T15:04:35.894Z,20.40
2019-02-28T15:07:16.377Z,20.80
2019-02-28T15:10:01.664Z,21.20
2019-02-28T15:13:04.671Z,21.40
2019-02-28T15:15:44.926Z,21.20
2019-02-28T15:18:25.120Z,21.50
2019-02-28T15:21:08.379Z,21.10
2019-02-28T15:23:49.041Z,21.00
2019-02-28T15:26:29.874Z,21.00
2019-02-28T15:31:51.603Z,21.00
2019-02-28T15:34:31.537Z,20.60
2019-02-28T15:37:11.841Z,19.90
2019-02-28T15:39:51.770Z,19.80
2019-02-28T15:42:31.691Z,19.70
2019-02-28T15:45:11.883Z,19.50
2019-02-28T15:47:59.116Z,19.40
2019-02-28T15:50:37.269Z,19.20
2019-02-28T15:53:17.522Z,19.40
2019-02-28T15:55:58.724Z,19.30
2019-02-28T15:58:41.358Z,19.30
2019-02-28T16:01:20.456Z,19.30
2019-02-28T16:04:00.059Z,19.30
2019-02-28T16:06:39.948Z,19.10
2019-02-28T16:09:21.444Z,18.70
2019-02-28T16:12:02.507Z,18.40
2019-02-28T16:14:42.378Z,18.20
2019-02-28T16:17:23.214Z,18.00
2019-02-28T16:20:02.902Z,17.90
2019-02-28T16:22:42.711Z,17.60
2019-02-28T16:25:22.419Z,17.30
2019-02-28T16:28:04.551Z,17.00
2019-02-28T16:30:44.450Z,16.60
2019-02-28T16:33:25.460Z,16.30
2019-02-28T16:36:05.564Z,16.00
2019-02-28T16:38:45.124Z,15.80
2019-02-28T16:41:33.766Z,15.50
2019-02-28T16:44:34.477Z,15.20
2019-02-28T16:47:14.580Z,14.70
2019-02-28T16:49:54.525Z,14.30
2019-02-28T16:52:32.362Z,14.00
2019-02-28T16:55:19.330Z,13.60
2019-02-28T16:57:58.848Z,13.30
2019-02-28T17:00:39.610Z,13.00
2019-02-28T17:03:22.408Z,12.80
2019-02-28T17:06:02.373Z,12.60
2019-02-28T17:08:42.744Z,12.40
2019-02-28T17:11:22.243Z,12.30
2019-02-28T17:14:10.199Z,12.20
2019-02-28T17:17:14.578Z,12.20
2019-02-28T17:19:54.328Z,12.20
2019-02-28T17:22:33.891Z,12.20
2019-02-28T17:25:14.175Z,12.30
2019-02-28T17:31:44.593Z,12.40
2019-02-28T17:34:24.508Z,12.30
2019-02-28T17:37:05.680Z,12.30
2019-02-28T17:39:47.414Z,12.30
2019-02-28T17:42:28.027Z,12.20
2019-02-28T17:45:10.162Z,12.20
2019-02-28T17:47:49.908Z,12.20
2019-02-28T17:50:30.113Z,12.20
2019-02-28T17:53:13.312Z,12.20
2019-02-28T17:55:53.053Z,12.10
2019-02-28T17:58:33.177Z,12.00
2019-02-28T18:01:13.720Z,12.00
2019-02-28T18:03:53.674Z,11.90
2019-02-28T18:06:34.201Z,11.90
2019-02-28T18:09:14.091Z,11.80
2019-02-28T18:11:53.887Z,11.80
2019-02-28T18:14:34.280Z,11.80
2019-02-28T18:17:14.166Z,11.80
2019-02-28T18:19:55.119Z,11.70
2019-02-28T18:22:35.397Z,11.60
2019-02-28T18:25:17.188Z,11.50
2019-02-28T18:27:57.853Z,11.30
2019-02-28T18:30:37.713Z,11.20
2019-02-28T18:33:19.538Z,11.30
2019-02-28T18:36:00.617Z,11.30
2019-02-28T18:38:40.781Z,11.30
2019-02-28T18:41:20.796Z,11.20
2019-02-28T18:44:03.749Z,11.10
2019-02-28T18:46:42.859Z,11.10
2019-02-28T18:49:26.582Z,11.00
2019-02-28T18:52:05.496Z,11.00
2019-02-28T18:54:45.230Z,11.00
2019-02-28T18:57:25.970Z,11.00
2019-02-28T19:00:15.134Z,11.10
2019-02-28T19:03:02.017Z,11.10
2019-02-28T19:05:42.279Z,11.10
2019-02-28T19:08:23.317Z,11.10
2019-02-28T19:11:07.215Z,11.00
2019-02-28T19:13:47.865Z,11.00
2019-02-28T19:16:27.315Z,11.10
2019-02-28T19:19:07.534Z,11.00
2019-02-28T19:21:47.934Z,11.00
2019-02-28T19:24:27.926Z,10.90
2019-02-28T19:27:07.834Z,10.90
2019-02-28T19:29:48.414Z,10.80
2019-02-28T19:32:28.113Z,10.70
2019-02-28T19:35:08.653Z,10.60
2019-02-28T19:37:48.494Z,10.70
2019-02-28T19:40:28.685Z,10.60
2019-02-28T19:43:08.924Z,10.60
2019-02-28T19:45:48.794Z,10.60
2019-02-28T19:48:32.395Z,10.60
2019-02-28T19:51:12.794Z,10.70
2019-02-28T19:53:53.288Z,10.70
2019-02-28T19:56:35.735Z,10.80
2019-02-28T19:59:16.305Z,10.80
2019-02-28T20:01:56.360Z,10.90
2019-02-28T20:04:36.258Z,10.90
2019-02-28T20:07:16.307Z,10.90
2019-02-28T20:09:56.612Z,10.90
2019-02-28T20:12:36.805Z,10.90
2019-02-28T20:15:17.393Z,10.90
2019-02-28T20:17:57.184Z,10.90
2019-02-28T20:20:37.472Z,10.80
2019-02-28T20:23:17.818Z,10.80
2019-02-28T20:25:57.436Z,10.80
2019-02-28T20:28:37.794Z,10.70
2019-02-28T20:31:17.811Z,10.70
2019-02-28T20:33:57.728Z,10.70
2019-02-28T20:36:38.967Z,10.70
2019-02-28T20:39:19.152Z,10.70
2019-02-28T20:41:58.848Z,10.70
2019-02-28T20:44:38.858Z,10.70
2019-02-28T20:47:19.221Z,10.60
2019-02-28T20:49:58.980Z,10.60
2019-02-28T20:52:39.510Z,10.50
2019-02-28T20:55:21.147Z,10.50
2019-02-28T20:58:01.395Z,10.40
2019-02-28T21:00:42.069Z,10.40
2019-02-28T21:03:22.828Z,10.30
2019-02-28T21:06:03.022Z,10.30
2019-02-28T21:08:42.876Z,10.30
2019-02-28T21:11:22.733Z,10.30
2019-02-28T21:14:07.132Z,10.30
2019-02-28T21:16:46.869Z,10.40
2019-02-28T21:19:27.015Z,10.40
2019-02-28T21:22:06.581Z,10.50
2019-02-28T21:24:46.719Z,10.50
2019-02-28T21:27:29.468Z,10.50
2019-02-28T21:30:11.980Z,10.60
2019-02-28T21:32:58.781Z,10.60
2019-02-28T21:35:40.352Z,10.60
2019-02-28T21:38:20.120Z,10.60
2019-02-28T21:41:00.345Z,10.60
2019-02-28T21:43:40.291Z,10.60
2019-02-28T21:46:20.021Z,10.50
2019-02-28T21:49:00.242Z,10.50
2019-02-28T21:51:40.596Z,10.40
2019-02-28T21:54:20.653Z,10.40
2019-02-28T21:57:00.436Z,10.40
2019-02-28T21:59:40.454Z,10.40
2019-02-28T22:02:20.604Z,10.50
2019-02-28T22:05:00.640Z,10.60
2019-02-28T22:07:40.481Z,10.60
2019-02-28T22:10:20.656Z,10.50
2019-02-28T22:13:04.449Z,10.40
2019-02-28T22:15:44.634Z,10.40
2019-02-28T22:18:25.097Z,10.40
2019-02-28T22:21:05.454Z,10.40
2019-02-28T22:23:45.684Z,10.30
2019-02-28T22:26:25.942Z,10.40
2019-02-28T22:29:06.324Z,10.30
2019-02-28T22:35:00.836Z,10.30
2019-02-28T22:37:40.392Z,10.30
2019-02-28T22:40:20.394Z,10.40
2019-02-28T22:43:00.762Z,10.40
2019-02-28T22:45:40.610Z,10.40
2019-02-28T22:48:24.413Z,10.50
2019-02-28T22:51:08.786Z,10.40
2019-02-28T22:53:48.660Z,10.40
2019-02-28T22:56:28.458Z,10.40
2019-02-28T22:59:08.695Z,10.30
2019-02-28T23:04:45.387Z,10.30
2019-02-28T23:07:25.456Z,10.20
2019-02-28T23:10:05.312Z,10.20
2019-02-28T23:12:45.728Z,10.20
2019-02-28T23:15:25.967Z,10.10
2019-02-28T23:18:05.933Z,10.20
2019-02-28T23:20:46.057Z,10.10
2019-02-28T23:23:26.025Z,10.10
2019-02-28T23:26:06.476Z,10.00
2019-02-28T23:28:46.285Z,9.80
2019-02-28T23:31:26.500Z,9.70
2019-02-28T23:34:06.651Z,9.50
2019-02-28T23:36:46.575Z,9.40
2019-02-28T23:39:26.575Z,9.40
2019-02-28T23:42:06.528Z,9.30
2019-02-28T23:44:46.735Z,9.20
2019-02-28T23:47:27.619Z,9.20
2019-02-28T23:50:07.601Z,9.10
2019-02-28T23:52:47.971Z,9.10
2019-02-28T23:55:27.704Z,9.20
2019-02-28T23:58:07.739Z,9.20
